createdAt,value
2019-02-18T00:02:02.909Z,9.07
2019-02-18T00:07:14.578Z,8.63
2019-02-18T00:12:15.339Z,9.00
2019-02-18T00:17:20.735Z,8.30
2019-02-18T00:22:26.130Z,8.60
2019-02-18T00:27:31.515Z,8.03
2019-02-18T00:32:36.815Z,7.50
2019-02-18T00:37:42.162Z,8.13
2019-02-18T00:42:47.540Z,7.87
2019-02-18T00:47:52.923Z,8.00
2019-02-18T00:52:58.221Z,8.40
2019-02-18T00:58:03.507Z,7.87
2019-02-18T01:03:08.944Z,7.63
2019-02-18T01:08:14.363Z,7.80
2019-02-18T01:13:19.707Z,8.03
2019-02-18T01:18:25.007Z,8.27
2019-02-18T01:23:30.275Z,8.43
2019-02-18T01:28:35.576Z,8.60
2019-02-18T01:33:40.868Z,8.67
2019-02-18T01:38:46.216Z,8.03
2019-02-18T01:43:51.543Z,8.50
2019-02-18T01:48:56.864Z,8.23
2019-02-18T01:54:02.122Z,8.77
2019-02-18T01:59:07.453Z,8.83
2019-02-18T02:04:12.753Z,8.07
2019-02-18T02:09:18.175Z,8.93
2019-02-18T02:14:23.629Z,8.77
2019-02-18T02:19:28.925Z,8.40
2019-02-18T02:24:34.301Z,7.67
2019-02-18T02:29:39.614Z,8.50
2019-02-18T02:34:44.950Z,7.70
2019-02-18T02:39:50.418Z,7.37
2019-02-18T02:44:55.730Z,8.10
2019-02-18T02:50:01.043Z,8.00
2019-02-18T02:55:06.586Z,9.23
2019-02-18T03:00:12.162Z,7.83
2019-02-18T03:05:17.447Z,8.20
2019-02-18T03:10:22.774Z,7.50
2019-02-18T03:15:28.079Z,7.90
2019-02-18T03:20:33.377Z,7.67
2019-02-18T03:25:38.705Z,7.37
2019-02-18T03:31:13.027Z,7.77
2019-02-18T03:36:18.587Z,7.40
2019-02-18T03:41:24.048Z,7.47
2019-02-18T03:46:29.455Z,8.00
2019-02-18T03:51:34.889Z,7.80
2019-02-18T03:56:40.624Z,7.73
2019-02-18T04:01:46.432Z,7.67
2019-02-18T04:06:52.365Z,8.03
2019-02-18T04:11:58.592Z,8.20
2019-02-18T04:17:04.567Z,7.90
2019-02-18T04:22:10.643Z,8.30
2019-02-18T04:27:16.200Z,7.70
2019-02-18T04:32:21.592Z,8.20
2019-02-18T04:37:26.937Z,8.10
2019-02-18T04:42:32.316Z,7.80
2019-02-18T04:47:37.654Z,7.53
2019-02-18T04:52:42.992Z,7.70
2019-02-18T04:57:48.383Z,7.93
2019-02-18T05:02:54.160Z,7.87
2019-02-18T05:07:59.454Z,7.90
2019-02-18T05:13:04.744Z,7.63
2019-02-18T05:18:10.089Z,8.93
2019-02-18T05:23:15.519Z,7.90
2019-02-18T05:28:20.885Z,7.80
2019-02-18T05:33:28.574Z,8.07
2019-02-18T05:38:33.953Z,7.90
2019-02-18T05:43:39.311Z,7.73
2019-02-18T05:48:44.704Z,7.90
2019-02-18T05:53:49.965Z,7.93
2019-02-18T05:58:55.245Z,8.70
2019-02-18T06:04:00.734Z,8.50
2019-02-18T06:09:06.338Z,8.30
2019-02-18T06:14:11.646Z,8.40
2019-02-18T06:19:16.993Z,9.03
2019-02-18T06:24:22.328Z,8.77
2019-02-18T06:29:27.632Z,9.03
2019-02-18T06:34:32.953Z,8.43
2019-02-18T06:39:41.784Z,8.37
2019-02-18T06:44:53.696Z,8.93
2019-02-18T06:49:59.298Z,8.50
2019-02-18T06:55:04.674Z,8.50
2019-02-18T07:00:22.940Z,8.60
2019-02-18T07:05:40.091Z,8.70
2019-02-18T07:11:04.410Z,7.33
2019-02-18T07:16:09.911Z,7.73
2019-02-18T07:21:15.268Z,7.97
2019-02-18T07:26:20.609Z,8.07
2019-02-18T07:31:25.920Z,8.13
2019-02-18T07:36:31.242Z,8.33
2019-02-18T07:41:36.537Z,8.43
2019-02-18T07:46:41.960Z,8.07
2019-02-18T07:51:47.272Z,8.03
2019-02-18T07:56:52.643Z,7.57
2019-02-18T08:01:58.003Z,7.43
2019-02-18T08:07:03.337Z,6.57
2019-02-18T08:12:08.751Z,7.23
2019-02-18T08:17:14.195Z,7.40
2019-02-18T08:22:19.528Z,7.43
2019-02-18T08:27:24.869Z,7.37
2019-02-18T08:32:30.174Z,7.03
2019-02-18T08:37:35.507Z,7.23
2019-02-18T08:42:40.822Z,7.23
2019-02-18T08:47:46.148Z,6.97
2019-02-18T08:52:51.439Z,7.43
2019-02-18T08:57:56.961Z,7.60
2019-02-18T09:03:02.313Z,7.47
2019-02-18T09:08:07.663Z,7.37
2019-02-18T09:13:13.013Z,6.97
2019-02-18T09:18:18.337Z,7.20
2019-02-18T09:23:37.331Z,7.13
2019-02-18T09:28:42.797Z,6.73
2019-02-18T09:33:48.091Z,6.57
2019-02-18T09:38:53.664Z,7.97
2019-02-18T09:43:59.150Z,7.63
2019-02-18T09:49:04.518Z,7.87
2019-02-18T09:54:09.890Z,6.70
2019-02-18T09:59:15.259Z,7.10
2019-02-18T10:04:22.535Z,7.10
2019-02-18T10:09:27.758Z,7.80
2019-02-18T10:14:33.113Z,7.47
2019-02-18T10:19:38.498Z,6.80
2019-02-18T10:24:50.407Z,7.63
2019-02-18T10:29:50.957Z,7.00
2019-02-18T10:34:56.467Z,7.90
2019-02-18T10:40:01.968Z,7.13
2019-02-18T10:45:09.422Z,7.30
2019-02-18T10:50:14.800Z,7.67
2019-02-18T10:55:20.247Z,7.60
2019-02-18T11:00:25.801Z,7.93
2019-02-18T11:05:31.186Z,7.63
2019-02-18T11:10:36.706Z,7.73
2019-02-18T11:15:42.095Z,7.40
2019-02-18T11:20:47.466Z,7.43
2019-02-18T11:25:52.825Z,7.50
2019-02-18T11:30:58.164Z,7.50
2019-02-18T11:36:03.569Z,6.97
2019-02-18T11:41:08.882Z,6.63
2019-02-18T11:46:14.211Z,6.67
2019-02-18T11:51:19.493Z,6.83
2019-02-18T11:56:25.122Z,6.37
2019-02-18T12:01:32.366Z,7.07
2019-02-18T12:06:37.769Z,6.97
2019-02-18T12:11:43.136Z,6.77
2019-02-18T12:16:48.460Z,6.57
2019-02-18T12:21:53.833Z,6.37
2019-02-18T12:26:59.261Z,6.60
2019-02-18T12:32:04.683Z,6.47
2019-02-18T12:37:10.370Z,6.47
2019-02-18T12:42:15.730Z,6.17
2019-02-18T12:47:21.042Z,5.93
2019-02-18T12:52:26.713Z,5.90
2019-02-18T12:57:32.210Z,6.00
2019-02-18T13:02:44.254Z,6.10
2019-02-18T13:07:44.705Z,5.97
2019-02-18T13:12:50.125Z,5.93
2019-02-18T13:17:55.587Z,5.87
2019-02-18T13:23:01.151Z,6.03
2019-02-18T13:28:08.690Z,5.83
2019-02-18T13:33:13.990Z,5.80
2019-02-18T13:38:19.517Z,5.87
2019-02-18T13:43:25.023Z,6.30
2019-02-18T13:48:30.431Z,6.00
2019-02-18T13:53:35.839Z,5.17
2019-02-18T13:58:41.158Z,5.20
2019-02-18T14:03:46.777Z,5.10
2019-02-18T14:08:52.086Z,4.87
2019-02-18T14:13:57.471Z,4.87
2019-02-18T14:19:02.885Z,4.97
2019-02-18T14:24:08.305Z,4.90
2019-02-18T14:29:13.736Z,4.23
2019-02-18T14:34:19.173Z,4.87
2019-02-18T14:39:25.078Z,3.83
2019-02-18T14:44:30.487Z,4.70
2019-02-18T14:49:36.159Z,3.73
2019-02-18T14:54:41.478Z,2.57
2019-02-18T14:59:46.866Z,2.40
2019-02-18T15:04:52.361Z,2.57
2019-02-18T15:09:57.766Z,2.87
2019-02-18T15:15:03.194Z,3.17
2019-02-18T15:20:08.630Z,3.40
2019-02-18T15:25:14.585Z,3.40
2019-02-18T15:30:20.076Z,3.10
2019-02-18T15:35:25.463Z,3.40
2019-02-18T15:40:30.755Z,4.10
2019-02-18T15:45:36.211Z,4.00
2019-02-18T15:50:41.690Z,3.57
2019-02-18T15:55:46.981Z,4.10
2019-02-18T16:00:52.456Z,4.47
2019-02-18T16:05:57.879Z,4.20
2019-02-18T16:11:03.374Z,4.00
2019-02-18T16:16:08.777Z,4.03
2019-02-18T16:21:14.157Z,4.43
2019-02-18T16:26:19.604Z,4.53
2019-02-18T16:31:25.033Z,4.20
2019-02-18T16:36:30.505Z,4.80
2019-02-18T16:41:36.309Z,4.53
2019-02-18T16:46:41.712Z,4.97
2019-02-18T16:51:47.483Z,4.27
2019-02-18T16:56:52.780Z,4.63
2019-02-18T17:01:58.333Z,4.63
2019-02-18T17:07:04.013Z,4.70
2019-02-18T17:12:09.836Z,4.67
2019-02-18T17:17:15.342Z,4.80
2019-02-18T17:22:20.923Z,5.33
2019-02-18T17:27:26.383Z,5.50
2019-02-18T17:32:31.726Z,5.00
2019-02-18T17:37:37.028Z,5.43
2019-02-18T17:42:42.607Z,5.23
2019-02-18T17:47:47.985Z,5.77
2019-02-18T17:52:53.819Z,5.73
2019-02-18T17:57:59.575Z,5.03
2019-02-18T18:03:05.173Z,5.83
2019-02-18T18:08:10.583Z,5.63
2019-02-18T18:13:19.526Z,5.93
2019-02-18T18:18:23.441Z,5.63
2019-02-18T18:23:30.529Z,5.70
2019-02-18T18:28:36.023Z,6.03
2019-02-18T18:33:41.380Z,6.10
2019-02-18T18:38:46.825Z,5.60
2019-02-18T18:43:52.837Z,5.93
2019-02-18T18:48:58.230Z,6.30
2019-02-18T18:54:03.687Z,5.90
2019-02-18T18:59:09.737Z,5.83
2019-02-18T19:04:15.603Z,6.07
2019-02-18T19:09:21.244Z,6.33
2019-02-18T19:14:26.706Z,6.37
2019-02-18T19:19:32.009Z,6.20
2019-02-18T19:24:37.315Z,6.00
2019-02-18T19:29:42.948Z,6.23
2019-02-18T19:34:48.463Z,6.20
2019-02-18T19:39:53.832Z,5.57
2019-02-18T19:44:59.161Z,6.10
2019-02-18T19:50:04.766Z,6.57
2019-02-18T19:55:10.193Z,6.70
2019-02-18T20:00:17.031Z,6.13
2019-02-18T20:05:22.530Z,6.10
2019-02-18T20:10:27.957Z,6.17
2019-02-18T20:15:33.263Z,6.83
2019-02-18T20:20:38.589Z,6.30
2019-02-18T20:25:43.977Z,5.80
2019-02-18T20:30:49.430Z,6.27
2019-02-18T20:35:54.798Z,6.80
2019-02-18T20:41:00.127Z,6.03
2019-02-18T20:46:05.441Z,6.13
2019-02-18T20:51:10.879Z,5.80
2019-02-18T20:56:16.290Z,6.73
2019-02-18T21:01:21.909Z,6.43
2019-02-18T21:06:27.218Z,6.43
2019-02-18T21:11:32.657Z,6.47
2019-02-18T21:16:38.016Z,5.93
2019-02-18T21:21:43.597Z,6.90
2019-02-18T21:26:49.821Z,5.90
2019-02-18T21:31:55.178Z,6.43
2019-02-18T21:37:00.890Z,6.20
2019-02-18T21:42:06.425Z,5.83
2019-02-18T21:47:12.053Z,6.10
2019-02-18T21:52:17.575Z,5.93
2019-02-18T21:57:23.062Z,6.07
2019-02-18T22:02:28.638Z,6.50
2019-02-18T22:07:34.192Z,5.90
2019-02-18T22:12:39.554Z,5.87
2019-02-18T22:17:44.967Z,6.03
2019-02-18T22:22:50.833Z,6.40
2019-02-18T22:27:56.397Z,5.70
2019-02-18T22:33:01.866Z,6.97
2019-02-18T22:38:07.250Z,6.57
2019-02-18T22:43:14.689Z,5.40
2019-02-18T22:48:20.113Z,5.97
2019-02-18T22:53:25.484Z,5.73
2019-02-18T22:58:31.467Z,6.13
2019-02-18T23:03:36.830Z,5.70
2019-02-18T23:08:42.559Z,5.63
2019-02-18T23:13:47.879Z,5.50
2019-02-18T23:18:53.212Z,5.87
2019-02-18T23:23:58.877Z,5.67
2019-02-18T23:29:04.316Z,5.50
2019-02-18T23:34:09.629Z,5.77
2019-02-18T23:39:14.949Z,5.33
2019-02-18T23:44:20.305Z,5.30
2019-02-18T23:49:25.679Z,5.50
2019-02-18T23:54:31.000Z,5.10
2019-02-18T23:59:36.406Z,5.27
